createdAt,value
2022-10-01T00:00:04.613Z,5.50
2022-10-01T00:00:49.382Z,5.50
2022-10-01T00:01:38.558Z,5.30
2022-10-01T00:02:12.124Z,5.50
2022-10-01T00:02:45.537Z,6.00
2022-10-01T00:03:19.925Z,5.70
2022-10-01T00:03:53.623Z,6.10
2022-10-01T00:04:27.995Z,5.90
2022-10-01T00:05:01.685Z,5.90
2022-10-01T00:05:34.884Z,5.60
2022-10-01T00:06:12.355Z,6.00
2022-10-01T00:06:45.641Z,5.80
2022-10-01T00:07:18.930Z,5.60
2022-10-01T00:07:52.253Z,6.00
2022-10-01T00:08:25.670Z,5.20
2022-10-01T00:08:59.134Z,6.10
2022-10-01T00:09:32.705Z,5.00
2022-10-01T00:10:07.048Z,4.90
2022-10-01T00:10:44.473Z,4.70
2022-10-01T00:11:26.401Z,4.50
2022-10-01T00:12:00.211Z,4.60
2022-10-01T00:12:35.091Z,4.90
2022-10-01T00:13:08.686Z,4.90
2022-10-01T00:13:46.543Z,4.70
2022-10-01T00:14:20.290Z,5.20
2022-10-01T00:14:53.463Z,5.10
2022-10-01T00:15:26.872Z,5.10
2022-10-01T00:16:00.710Z,5.00
2022-10-01T00:16:34.003Z,5.70
2022-10-01T00:17:07.341Z,5.10
2022-10-01T00:17:41.227Z,5.10
2022-10-01T00:18:14.896Z,4.80
2022-10-01T00:18:49.613Z,4.70
2022-10-01T00:19:23.103Z,5.10
2022-10-01T00:19:56.325Z,4.80
2022-10-01T00:20:29.741Z,4.60
2022-10-01T00:21:07.518Z,4.70
2022-10-01T00:21:40.921Z,5.00
2022-10-01T00:22:14.070Z,5.00
2022-10-01T00:22:47.671Z,4.80
2022-10-01T00:23:20.873Z,5.90
2022-10-01T00:23:59.814Z,4.10
2022-10-01T00:24:33.209Z,4.60
2022-10-01T00:25:07.345Z,5.30
2022-10-01T00:25:41.653Z,5.80
2022-10-01T00:26:21.213Z,5.10
2022-10-01T00:26:54.388Z,4.90
2022-10-01T00:27:28.039Z,4.90
2022-10-01T00:28:01.526Z,5.00
2022-10-01T00:28:34.831Z,4.90
2022-10-01T00:29:13.146Z,5.10
2022-10-01T00:29:46.290Z,4.70
2022-10-01T00:30:19.574Z,5.00
2022-10-01T00:30:52.843Z,4.90
2022-10-01T00:31:27.428Z,4.90
2022-10-01T00:32:00.952Z,4.90
2022-10-01T00:32:34.155Z,4.70
2022-10-01T00:33:07.454Z,4.90
2022-10-01T00:33:40.926Z,4.80
2022-10-01T00:34:16.109Z,4.60
2022-10-01T00:34:49.462Z,4.40
2022-10-01T00:35:23.604Z,4.20
2022-10-01T00:35:57.397Z,5.00
2022-10-01T00:36:32.117Z,4.50
2022-10-01T00:37:05.343Z,4.40
2022-10-01T00:37:39.243Z,4.40
2022-10-01T00:38:14.346Z,4.60
2022-10-01T00:38:48.653Z,4.30
2022-10-01T00:39:22.505Z,4.30
2022-10-01T00:39:55.791Z,4.60
2022-10-01T00:40:29.212Z,4.60
2022-10-01T00:41:03.900Z,4.40
2022-10-01T00:41:37.569Z,4.60
2022-10-01T00:42:27.022Z,4.20
2022-10-01T00:43:00.266Z,4.20
2022-10-01T00:43:37.053Z,3.90
2022-10-01T00:44:32.469Z,4.20
2022-10-01T00:45:05.981Z,4.40
2022-10-01T00:45:39.848Z,3.90
2022-10-01T00:46:28.147Z,4.50
2022-10-01T00:47:11.716Z,4.20
2022-10-01T00:48:00.705Z,4.50
2022-10-01T00:48:44.742Z,4.10
2022-10-01T00:49:24.524Z,4.30
2022-10-01T00:50:16.750Z,4.60
2022-10-01T00:50:52.123Z,4.20
2022-10-01T00:51:35.858Z,4.60
2022-10-01T00:52:14.129Z,4.00
2022-10-01T00:52:52.449Z,4.90
2022-10-01T00:53:26.746Z,5.30
2022-10-01T00:54:10.756Z,4.40
2022-10-01T00:55:05.013Z,4.70
2022-10-01T00:55:43.169Z,4.50
2022-10-01T00:56:16.380Z,4.60
2022-10-01T00:56:55.751Z,4.40
2022-10-01T00:57:29.905Z,4.60
2022-10-01T00:58:05.277Z,4.90
2022-10-01T00:58:39.824Z,4.40
2022-10-01T00:59:16.450Z,4.60
2022-10-01T00:59:52.360Z,4.00
2022-10-01T01:00:25.772Z,4.20
2022-10-01T01:00:59.379Z,4.30
2022-10-01T01:01:36.926Z,4.60
2022-10-01T01:02:11.536Z,4.90
2022-10-01T01:02:45.017Z,4.70
2022-10-01T01:03:18.681Z,4.00
2022-10-01T01:03:52.180Z,4.70
2022-10-01T01:04:25.533Z,4.20
2022-10-01T01:04:59.513Z,4.50
2022-10-01T01:05:33.080Z,4.60
2022-10-01T01:06:08.431Z,4.40
2022-10-01T01:06:41.599Z,4.10
2022-10-01T01:07:16.252Z,4.50
2022-10-01T01:07:53.021Z,4.30
2022-10-01T01:08:26.284Z,4.80
2022-10-01T01:08:59.692Z,4.20
2022-10-01T01:09:44.971Z,3.80
2022-10-01T01:10:28.387Z,3.60
2022-10-01T01:11:35.633Z,3.90
2022-10-01T01:12:21.308Z,3.80
2022-10-01T01:12:54.424Z,3.60
2022-10-01T01:13:37.662Z,4.40
2022-10-01T01:14:20.424Z,4.40
2022-10-01T01:15:14.434Z,3.60
2022-10-01T01:16:12.953Z,4.50
2022-10-01T01:17:03.586Z,4.00
2022-10-01T01:18:03.873Z,4.90
2022-10-01T01:18:48.173Z,4.50
2022-10-01T01:19:41.566Z,4.30
2022-10-01T01:20:26.783Z,5.10
2022-10-01T01:21:09.259Z,4.60
2022-10-01T01:21:45.956Z,4.50
2022-10-01T01:22:24.742Z,4.60
2022-10-01T01:23:08.874Z,4.60
2022-10-01T01:24:04.198Z,4.30
2022-10-01T01:24:49.016Z,4.00
2022-10-01T01:25:38.738Z,4.20
2022-10-01T01:26:19.275Z,5.10
2022-10-01T01:27:10.851Z,4.90
2022-10-01T01:27:48.921Z,4.70
2022-10-01T01:28:31.886Z,4.10
2022-10-01T01:29:28.652Z,5.10
2022-10-01T01:30:11.948Z,4.80
2022-10-01T01:30:49.685Z,4.90
2022-10-01T01:31:30.698Z,5.50
2022-10-01T01:32:14.853Z,4.90
2022-10-01T01:32:59.527Z,5.00
2022-10-01T01:33:37.522Z,4.40
2022-10-01T01:34:14.446Z,4.60
2022-10-01T01:34:50.609Z,4.20
2022-10-01T01:35:42.500Z,4.00
2022-10-01T01:36:19.695Z,4.50
2022-10-01T01:36:59.902Z,4.00
2022-10-01T01:37:40.483Z,4.20
2022-10-01T01:38:19.133Z,4.90
2022-10-01T01:38:58.840Z,4.00
2022-10-01T01:39:35.176Z,4.20
2022-10-01T01:40:12.524Z,5.00
2022-10-01T01:40:51.871Z,4.40
2022-10-01T01:41:29.606Z,4.50
2022-10-01T01:42:09.775Z,5.10
2022-10-01T01:42:45.071Z,4.70
2022-10-01T01:43:24.573Z,4.40
2022-10-01T01:44:02.458Z,4.70
2022-10-01T01:44:40.103Z,4.00
2022-10-01T01:45:20.394Z,4.40
2022-10-01T01:45:56.855Z,4.40
2022-10-01T01:46:34.402Z,4.90
2022-10-01T01:47:10.836Z,4.60
2022-10-01T01:47:46.034Z,4.90
2022-10-01T01:48:19.279Z,4.70
2022-10-01T01:48:53.601Z,4.50
2022-10-01T01:49:27.075Z,4.40
2022-10-01T01:50:06.360Z,4.70
2022-10-01T01:51:08.679Z,4.80
2022-10-01T01:51:53.416Z,4.40
2022-10-01T01:52:26.762Z,4.20
2022-10-01T01:53:00.289Z,4.30
2022-10-01T01:53:34.808Z,4.80
2022-10-01T01:54:08.909Z,4.10
2022-10-01T01:54:50.002Z,4.80
2022-10-01T01:55:25.596Z,3.90
2022-10-01T01:56:00.596Z,4.50
2022-10-01T01:56:34.648Z,4.30
2022-10-01T01:57:09.140Z,4.20
2022-10-01T01:57:44.548Z,4.70
2022-10-01T01:58:19.127Z,4.50
2022-10-01T01:58:54.221Z,5.00
2022-10-01T01:59:28.101Z,5.20
2022-10-01T02:00:02.692Z,5.10
2022-10-01T02:00:36.895Z,5.10
2022-10-01T02:01:34.781Z,5.10
2022-10-01T02:02:13.725Z,4.90
2022-10-01T02:02:52.121Z,4.80
2022-10-01T02:03:29.539Z,4.50
2022-10-01T02:04:07.133Z,4.90
2022-10-01T02:04:57.825Z,4.70
2022-10-01T02:05:55.309Z,4.70
2022-10-01T02:06:48.808Z,4.60
2022-10-01T02:07:37.649Z,4.70
2022-10-01T02:08:41.617Z,4.50
2022-10-01T02:09:48.983Z,4.20
2022-10-01T02:10:34.542Z,3.60
2022-10-01T02:11:22.039Z,4.00
2022-10-01T02:12:09.671Z,4.30
2022-10-01T02:13:01.887Z,4.00
2022-10-01T02:13:50.475Z,4.40
2022-10-01T02:14:43.899Z,4.90
2022-10-01T02:15:35.569Z,4.40
2022-10-01T02:16:27.894Z,4.50
2022-10-01T02:17:11.452Z,5.20
2022-10-01T02:17:54.056Z,4.50
2022-10-01T02:18:36.247Z,4.30
2022-10-01T02:19:28.270Z,4.90
2022-10-01T02:20:14.365Z,5.40
2022-10-01T02:21:04.664Z,5.10
2022-10-01T02:21:42.475Z,5.10
2022-10-01T02:22:23.960Z,4.30
2022-10-01T02:23:10.359Z,5.30
2022-10-01T02:23:59.845Z,5.50
2022-10-01T02:24:41.734Z,4.80
2022-10-01T02:25:19.504Z,4.70
2022-10-01T02:25:58.705Z,6.00
2022-10-01T02:26:35.475Z,5.60
2022-10-01T02:27:30.715Z,5.60
2022-10-01T02:28:33.180Z,5.40
2022-10-01T02:29:10.210Z,5.30
2022-10-01T02:29:45.627Z,5.70
2022-10-01T02:30:19.460Z,5.50
2022-10-01T02:30:56.230Z,5.50
2022-10-01T02:31:32.689Z,5.20
2022-10-01T02:32:07.279Z,6.00
2022-10-01T02:32:44.877Z,5.70
2022-10-01T02:33:24.753Z,4.40
2022-10-01T02:34:00.345Z,5.70
2022-10-01T02:34:34.290Z,4.90
2022-10-01T02:35:11.147Z,5.20
2022-10-01T02:35:46.844Z,6.30
2022-10-01T02:36:23.211Z,4.80
2022-10-01T02:36:59.706Z,5.40
2022-10-01T02:37:34.711Z,5.30
2022-10-01T02:38:11.115Z,4.70
2022-10-01T02:38:46.742Z,5.10
2022-10-01T02:39:23.307Z,5.10
2022-10-01T02:39:58.921Z,5.10
2022-10-01T02:40:36.733Z,5.90
2022-10-01T02:41:12.952Z,5.10
2022-10-01T02:41:50.583Z,5.00
2022-10-01T02:42:27.837Z,4.80
2022-10-01T02:43:12.427Z,5.50
2022-10-01T02:43:57.483Z,5.00
2022-10-01T02:44:40.478Z,5.20
2022-10-01T02:45:18.484Z,5.20
2022-10-01T02:45:58.938Z,4.40
2022-10-01T02:47:10.963Z,5.90
2022-10-01T02:48:21.743Z,5.50
2022-10-01T02:48:56.186Z,5.70
2022-10-01T02:49:31.035Z,5.50
2022-10-01T02:50:06.752Z,5.70
2022-10-01T02:50:53.267Z,5.90
2022-10-01T02:51:53.585Z,5.40
2022-10-01T02:52:29.702Z,5.50
2022-10-01T02:53:10.272Z,5.50
2022-10-01T02:53:53.379Z,4.90
2022-10-01T02:54:52.459Z,5.60
2022-10-01T02:55:31.127Z,5.30
2022-10-01T02:56:06.101Z,5.40
2022-10-01T02:56:59.658Z,4.80
2022-10-01T02:57:33.323Z,5.30
2022-10-01T02:58:08.049Z,4.80
2022-10-01T02:58:42.253Z,5.00
2022-10-01T02:59:15.382Z,4.50
2022-10-01T02:59:49.216Z,5.60
2022-10-01T03:00:23.096Z,5.00
2022-10-01T03:00:56.393Z,5.70
2022-10-01T03:01:30.137Z,4.70
2022-10-01T03:02:04.148Z,5.60
2022-10-01T03:02:37.795Z,5.50
2022-10-01T03:03:11.197Z,5.20
2022-10-01T03:03:44.451Z,4.80
2022-10-01T03:04:19.462Z,5.20
2022-10-01T03:04:52.612Z,4.90
2022-10-01T03:05:26.056Z,5.70
2022-10-01T03:05:59.303Z,5.20
2022-10-01T03:06:35.349Z,5.10
2022-10-01T03:07:08.744Z,5.00
2022-10-01T03:07:42.270Z,5.30
2022-10-01T03:08:15.520Z,5.10
2022-10-01T03:08:48.863Z,4.60
2022-10-01T03:09:22.082Z,5.20
2022-10-01T03:09:55.316Z,5.70
2022-10-01T03:10:28.846Z,4.90
2022-10-01T03:11:02.389Z,5.50
2022-10-01T03:11:36.048Z,5.40
2022-10-01T03:12:10.865Z,6.10
2022-10-01T03:12:48.248Z,5.50
2022-10-01T03:13:23.743Z,5.00
2022-10-01T03:13:57.425Z,5.20
2022-10-01T03:14:32.567Z,5.10
2022-10-01T03:15:07.063Z,5.10
2022-10-01T03:15:40.220Z,5.40
2022-10-01T03:16:13.672Z,6.00
2022-10-01T03:16:46.789Z,4.50
2022-10-01T03:17:20.629Z,5.70
2022-10-01T03:17:54.208Z,5.50
2022-10-01T03:18:27.440Z,5.40
2022-10-01T03:19:00.588Z,5.50
2022-10-01T03:19:33.955Z,6.00
2022-10-01T03:20:07.897Z,5.90
2022-10-01T03:20:41.003Z,5.20
2022-10-01T03:21:14.356Z,5.90
2022-10-01T03:21:48.126Z,5.20
2022-10-01T03:22:25.536Z,5.30
2022-10-01T03:22:58.781Z,5.20
2022-10-01T03:23:32.083Z,5.60
2022-10-01T03:24:05.337Z,5.70
2022-10-01T03:24:38.817Z,5.30
2022-10-01T03:25:11.965Z,5.60
2022-10-01T03:25:45.135Z,5.20
2022-10-01T03:26:18.348Z,5.30
2022-10-01T03:26:51.670Z,5.70
2022-10-01T03:27:24.976Z,6.60
2022-10-01T03:27:59.371Z,5.40
2022-10-01T03:28:32.540Z,5.60
2022-10-01T03:29:06.671Z,4.60
2022-10-01T03:29:39.757Z,4.70
2022-10-01T03:30:13.685Z,5.30
2022-10-01T03:30:46.934Z,5.10
2022-10-01T03:31:20.232Z,5.80
2022-10-01T03:31:54.300Z,6.40
2022-10-01T03:32:27.624Z,6.50
2022-10-01T03:33:01.086Z,7.30
2022-10-01T03:33:34.382Z,6.70
2022-10-01T03:34:07.534Z,6.10
2022-10-01T03:34:41.312Z,6.30
2022-10-01T03:35:14.571Z,6.20
2022-10-01T03:35:47.960Z,7.10
2022-10-01T03:36:21.208Z,6.20
2022-10-01T03:36:54.430Z,5.80
2022-10-01T03:37:27.599Z,6.40
2022-10-01T03:38:02.990Z,5.50
2022-10-01T03:38:36.048Z,5.50
2022-10-01T03:39:09.476Z,5.60
2022-10-01T03:39:43.035Z,5.40
2022-10-01T03:40:16.218Z,6.30
2022-10-01T03:40:49.891Z,5.20
2022-10-01T03:41:23.122Z,4.90
2022-10-01T03:41:56.596Z,6.00
2022-10-01T03:42:29.877Z,5.20
2022-10-01T03:43:02.982Z,5.60
2022-10-01T03:43:36.266Z,5.90
2022-10-01T03:44:09.518Z,6.00
2022-10-01T03:44:43.953Z,5.10
2022-10-01T03:45:17.174Z,5.40
2022-10-01T03:45:50.142Z,5.50
2022-10-01T03:46:23.480Z,5.30
2022-10-01T03:46:56.616Z,5.80
2022-10-01T03:47:29.994Z,5.10
2022-10-01T03:48:03.195Z,5.20
2022-10-01T03:48:36.207Z,5.50
2022-10-01T03:49:09.618Z,5.70
2022-10-01T03:49:42.660Z,5.70
2022-10-01T03:50:15.889Z,5.80
2022-10-01T03:51:00.002Z,5.50
2022-10-01T03:51:33.918Z,5.90
2022-10-01T03:52:07.282Z,5.90
2022-10-01T03:52:41.954Z,5.60
2022-10-01T03:53:15.282Z,5.70
2022-10-01T03:53:48.622Z,6.00
2022-10-01T03:54:22.024Z,5.30
2022-10-01T03:54:55.130Z,5.80
2022-10-01T03:55:28.651Z,5.40
2022-10-01T03:56:02.057Z,5.90
2022-10-01T03:56:36.239Z,5.70
2022-10-01T03:57:09.693Z,5.60
2022-10-01T03:57:42.778Z,5.80
2022-10-01T03:58:16.946Z,5.40
2022-10-01T03:58:50.523Z,5.60
2022-10-01T03:59:23.766Z,6.30
2022-10-01T03:59:56.957Z,5.80
2022-10-01T04:00:30.175Z,5.50
2022-10-01T04:01:03.486Z,5.70
2022-10-01T04:01:37.579Z,5.80
2022-10-01T04:02:11.396Z,6.00
2022-10-01T04:02:45.332Z,6.00
2022-10-01T04:03:19.107Z,6.30
2022-10-01T04:03:53.148Z,6.10
2022-10-01T04:04:26.231Z,6.00
2022-10-01T04:04:59.467Z,6.00
2022-10-01T04:05:32.810Z,6.70
2022-10-01T04:06:06.290Z,6.60
2022-10-01T04:06:39.517Z,6.50
2022-10-01T04:07:12.753Z,6.70
2022-10-01T04:07:46.559Z,7.20
2022-10-01T04:08:24.050Z,6.30
2022-10-01T04:08:58.134Z,6.40
2022-10-01T04:09:31.451Z,6.00
2022-10-01T04:10:04.937Z,7.20
2022-10-01T04:10:38.833Z,6.80
2022-10-01T04:11:12.174Z,6.10
2022-10-01T04:11:45.562Z,7.00
2022-10-01T04:12:19.186Z,6.30
2022-10-01T04:12:54.150Z,6.40
2022-10-01T04:13:28.282Z,6.70
2022-10-01T04:14:01.677Z,5.90
2022-10-01T04:14:34.824Z,6.50
2022-10-01T04:15:08.553Z,5.90
2022-10-01T04:15:42.029Z,6.10
2022-10-01T04:16:16.442Z,5.80
2022-10-01T04:16:52.784Z,6.50
2022-10-01T04:17:25.907Z,5.60
2022-10-01T04:18:00.066Z,6.20
2022-10-01T04:18:34.479Z,6.20
2022-10-01T04:19:07.653Z,5.90
2022-10-01T04:19:40.878Z,6.30
2022-10-01T04:20:14.452Z,6.20
2022-10-01T04:20:48.516Z,6.30
2022-10-01T04:21:21.722Z,6.30
2022-10-01T04:21:54.876Z,5.60
2022-10-01T04:22:28.068Z,7.10
2022-10-01T04:23:02.126Z,6.60
2022-10-01T04:23:35.530Z,6.80
2022-10-01T04:24:08.684Z,5.70
2022-10-01T04:24:41.924Z,6.00
2022-10-01T04:25:15.367Z,5.50
2022-10-01T04:25:49.247Z,5.70
2022-10-01T04:26:22.580Z,5.70
2022-10-01T04:26:55.863Z,6.10
2022-10-01T04:27:29.341Z,6.00
2022-10-01T04:28:06.387Z,6.30
2022-10-01T04:28:39.830Z,5.40
2022-10-01T04:29:12.981Z,5.20
2022-10-01T04:29:46.177Z,5.50
2022-10-01T04:30:19.405Z,5.60
2022-10-01T04:31:12.534Z,5.50
2022-10-01T04:31:46.012Z,5.00
2022-10-01T04:32:22.556Z,5.70
2022-10-01T04:32:55.779Z,5.80
2022-10-01T04:33:28.821Z,5.40
2022-10-01T04:34:02.164Z,6.20
2022-10-01T04:34:53.602Z,5.40
2022-10-01T04:35:27.247Z,5.50
2022-10-01T04:36:00.482Z,5.70
2022-10-01T04:36:33.851Z,5.30
2022-10-01T04:37:07.117Z,5.90
2022-10-01T04:37:40.369Z,5.80
2022-10-01T04:38:16.796Z,6.20
2022-10-01T04:38:59.279Z,6.50
2022-10-01T04:39:35.249Z,5.90
2022-10-01T04:40:10.959Z,6.60
2022-10-01T04:40:44.131Z,6.60
2022-10-01T04:41:17.368Z,6.30
2022-10-01T04:41:50.738Z,6.50
2022-10-01T04:42:23.909Z,6.60
2022-10-01T04:42:57.672Z,6.90
2022-10-01T04:43:31.188Z,6.30
2022-10-01T04:44:04.799Z,7.30
2022-10-01T04:44:38.163Z,6.60
2022-10-01T04:45:12.143Z,7.10
2022-10-01T04:45:45.400Z,6.90
2022-10-01T04:46:18.803Z,7.50
2022-10-01T04:46:51.995Z,6.60
2022-10-01T04:47:25.287Z,6.80
2022-10-01T04:47:58.874Z,6.50
2022-10-01T04:48:31.898Z,7.30
2022-10-01T04:49:05.362Z,6.90
2022-10-01T04:49:39.485Z,6.80
2022-10-01T04:50:12.966Z,6.70
2022-10-01T04:50:46.101Z,7.00
2022-10-01T04:51:19.306Z,7.30
2022-10-01T04:51:52.513Z,7.20
2022-10-01T04:52:25.831Z,6.80
2022-10-01T04:52:59.035Z,7.50
2022-10-01T04:53:32.685Z,7.70
2022-10-01T04:54:05.867Z,7.10
2022-10-01T04:54:39.046Z,6.60
2022-10-01T04:55:12.369Z,6.70
2022-10-01T04:55:46.602Z,6.70
2022-10-01T04:56:19.798Z,7.80
2022-10-01T04:56:53.225Z,7.20
2022-10-01T04:57:26.424Z,6.70
2022-10-01T04:57:59.660Z,6.70
2022-10-01T04:58:33.396Z,7.70
2022-10-01T04:59:06.571Z,7.20
2022-10-01T04:59:39.588Z,6.50
2022-10-01T05:00:19.339Z,6.60
2022-10-01T05:00:52.526Z,7.30
2022-10-01T05:01:25.708Z,6.80
2022-10-01T05:01:59.079Z,6.70
2022-10-01T05:02:34.677Z,6.10
2022-10-01T05:03:08.085Z,7.00
2022-10-01T05:03:41.530Z,6.40
2022-10-01T05:04:14.992Z,6.60
2022-10-01T05:04:48.389Z,6.80
2022-10-01T05:05:24.789Z,6.90
2022-10-01T05:05:58.055Z,6.90
2022-10-01T05:06:31.514Z,6.50
2022-10-01T05:07:04.810Z,6.90
2022-10-01T05:07:40.195Z,7.30
2022-10-01T05:08:13.441Z,7.50
2022-10-01T05:08:47.990Z,6.90
2022-10-01T05:09:21.249Z,7.10
2022-10-01T05:09:54.324Z,7.30
2022-10-01T05:10:27.852Z,7.10
2022-10-01T05:11:00.976Z,6.90
2022-10-01T05:11:35.141Z,6.90
2022-10-01T05:12:08.634Z,6.20
2022-10-01T05:12:42.307Z,7.00
2022-10-01T05:13:15.465Z,6.00
2022-10-01T05:13:48.756Z,6.80
2022-10-01T05:14:22.291Z,6.80
2022-10-01T05:14:56.971Z,6.20
2022-10-01T05:15:30.629Z,7.10
2022-10-01T05:16:03.974Z,6.80
2022-10-01T05:16:37.975Z,6.70
2022-10-01T05:17:11.280Z,7.50
2022-10-01T05:17:45.008Z,7.20
2022-10-01T05:18:18.156Z,6.80
2022-10-01T05:18:51.447Z,6.90
2022-10-01T05:19:27.950Z,6.70
2022-10-01T05:20:02.414Z,6.50
2022-10-01T05:20:35.587Z,6.60
2022-10-01T05:21:10.360Z,6.70
2022-10-01T05:21:44.187Z,6.80
2022-10-01T05:22:17.334Z,6.50
2022-10-01T05:22:51.071Z,6.70
2022-10-01T05:23:24.279Z,6.60
2022-10-01T05:23:57.477Z,6.90
2022-10-01T05:24:30.700Z,6.40
2022-10-01T05:25:04.407Z,6.60
2022-10-01T05:25:37.796Z,6.50
2022-10-01T05:26:11.141Z,7.00
2022-10-01T05:26:44.437Z,6.30
2022-10-01T05:27:17.945Z,7.00
2022-10-01T05:27:51.381Z,6.60
2022-10-01T05:28:24.784Z,7.40
2022-10-01T05:29:00.901Z,7.00
2022-10-01T05:29:33.952Z,6.60
2022-10-01T05:30:09.328Z,6.30
2022-10-01T05:30:43.422Z,7.10
2022-10-01T05:31:16.768Z,6.60
2022-10-01T05:31:50.555Z,6.90
2022-10-01T05:32:23.938Z,7.50
2022-10-01T05:32:59.231Z,7.00
2022-10-01T05:33:34.427Z,7.60
2022-10-01T05:34:07.604Z,6.70
2022-10-01T05:34:40.874Z,7.60
2022-10-01T05:35:14.156Z,7.10
2022-10-01T05:35:47.729Z,7.10
2022-10-01T05:36:20.926Z,7.10
2022-10-01T05:36:55.296Z,6.70
2022-10-01T05:37:28.499Z,7.20
2022-10-01T05:38:03.222Z,7.10
2022-10-01T05:38:37.631Z,7.60
2022-10-01T05:39:10.964Z,7.60
2022-10-01T05:39:44.348Z,7.40
2022-10-01T05:40:18.398Z,7.30
2022-10-01T05:40:51.853Z,7.00
2022-10-01T05:41:24.970Z,7.20
2022-10-01T05:42:03.933Z,7.10
2022-10-01T05:42:39.803Z,7.60
2022-10-01T05:43:13.934Z,6.60
2022-10-01T05:43:50.252Z,7.10
2022-10-01T05:44:24.394Z,6.90
2022-10-01T05:44:57.804Z,6.80
2022-10-01T05:45:32.583Z,7.10
2022-10-01T05:46:06.430Z,7.40
2022-10-01T05:46:40.058Z,7.10
2022-10-01T05:47:14.808Z,6.80
2022-10-01T05:47:49.564Z,6.70
2022-10-01T05:48:22.911Z,6.90
2022-10-01T05:48:56.425Z,7.00
2022-10-01T05:49:29.957Z,7.00
2022-10-01T05:50:03.733Z,6.80
2022-10-01T05:50:40.548Z,5.70
2022-10-01T05:51:16.794Z,6.20
2022-10-01T05:51:50.333Z,6.20
2022-10-01T05:52:23.794Z,6.90
2022-10-01T05:52:57.764Z,6.50
2022-10-01T05:53:31.387Z,5.90
2022-10-01T05:54:04.770Z,6.40
2022-10-01T05:54:38.603Z,6.40
2022-10-01T05:55:11.789Z,6.30
2022-10-01T05:55:45.279Z,6.70
2022-10-01T05:56:19.200Z,6.40
2022-10-01T05:56:53.843Z,6.00
2022-10-01T05:57:27.169Z,6.40
2022-10-01T05:58:10.878Z,6.70
2022-10-01T05:58:44.337Z,7.00
2022-10-01T05:59:17.906Z,6.80
2022-10-01T05:59:51.249Z,6.40
2022-10-01T06:00:28.450Z,6.60
2022-10-01T06:01:02.135Z,7.40
2022-10-01T06:01:35.999Z,7.50
2022-10-01T06:02:10.430Z,7.10
2022-10-01T06:02:44.351Z,6.90
2022-10-01T06:03:18.028Z,7.20
2022-10-01T06:03:54.991Z,6.80
2022-10-01T06:04:28.431Z,6.60
2022-10-01T06:05:02.798Z,6.50
2022-10-01T06:05:37.025Z,7.20
2022-10-01T06:06:11.125Z,6.40
2022-10-01T06:06:45.113Z,7.00
2022-10-01T06:07:18.640Z,7.60
2022-10-01T06:07:52.699Z,7.30
2022-10-01T06:08:29.080Z,7.20
2022-10-01T06:09:02.639Z,7.80
2022-10-01T06:09:36.089Z,7.80
2022-10-01T06:10:09.668Z,9.40
2022-10-01T06:10:43.096Z,9.80
2022-10-01T06:11:17.467Z,11.40
2022-10-01T06:11:50.874Z,14.10
2022-10-01T06:12:24.477Z,12.70
2022-10-01T06:13:02.171Z,14.70
2022-10-01T06:13:36.524Z,17.40
2022-10-01T06:14:09.841Z,15.90
2022-10-01T06:14:43.142Z,13.00
2022-10-01T06:15:18.096Z,13.40
2022-10-01T06:15:53.201Z,11.40
2022-10-01T06:16:26.302Z,10.90
2022-10-01T06:16:59.613Z,10.90
2022-10-01T06:17:33.531Z,11.40
2022-10-01T06:18:09.012Z,11.90
2022-10-01T06:18:42.820Z,10.90
2022-10-01T06:19:17.750Z,11.20
2022-10-01T06:19:51.832Z,8.80
2022-10-01T06:20:25.059Z,8.80
2022-10-01T06:21:00.473Z,8.70
2022-10-01T06:21:34.167Z,7.30
2022-10-01T06:22:08.044Z,8.00
2022-10-01T06:22:43.426Z,7.70
2022-10-01T06:23:16.610Z,8.10
2022-10-01T06:23:50.746Z,7.90
2022-10-01T06:24:23.975Z,10.00
2022-10-01T06:24:57.346Z,13.70
2022-10-01T06:25:31.303Z,17.10
2022-10-01T06:26:06.324Z,19.50
2022-10-01T06:26:39.664Z,20.40
2022-10-01T06:27:13.062Z,18.80
2022-10-01T06:27:53.760Z,14.70
2022-10-01T06:28:28.138Z,13.40
2022-10-01T06:29:03.173Z,12.30
2022-10-01T06:29:36.453Z,11.90
2022-10-01T06:30:10.655Z,10.50
2022-10-01T06:30:44.002Z,9.90
2022-10-01T06:31:18.485Z,10.20
2022-10-01T06:31:52.097Z,9.60
2022-10-01T06:32:25.450Z,9.40
2022-10-01T06:33:03.162Z,10.70
2022-10-01T06:33:37.231Z,9.30
2022-10-01T06:34:10.838Z,9.70
2022-10-01T06:34:43.891Z,9.30
2022-10-01T06:35:18.146Z,9.20
2022-10-01T06:35:52.377Z,9.20
2022-10-01T06:36:25.575Z,9.70
2022-10-01T06:36:58.700Z,8.70
2022-10-01T06:37:32.414Z,8.20
2022-10-01T06:38:06.597Z,8.20
2022-10-01T06:38:39.851Z,7.90
2022-10-01T06:39:12.959Z,9.50
2022-10-01T06:39:46.367Z,9.40
2022-10-01T06:40:19.739Z,7.70
2022-10-01T06:41:01.136Z,8.70
2022-10-01T06:41:34.930Z,8.20
2022-10-01T06:42:08.495Z,8.60
2022-10-01T06:42:48.278Z,8.40
2022-10-01T06:43:22.406Z,8.70
2022-10-01T06:43:55.711Z,8.60
2022-10-01T06:44:29.360Z,8.50
2022-10-01T06:45:02.733Z,8.00
2022-10-01T06:45:43.923Z,7.90
2022-10-01T06:46:17.423Z,8.70
2022-10-01T06:46:50.662Z,9.10
2022-10-01T06:47:24.755Z,8.80
2022-10-01T06:48:03.012Z,8.50
2022-10-01T06:48:36.908Z,8.60
2022-10-01T06:49:10.109Z,9.20
2022-10-01T06:49:47.314Z,10.30
2022-10-01T06:50:21.078Z,9.50
2022-10-01T06:50:56.313Z,9.30
2022-10-01T06:51:48.505Z,8.40
2022-10-01T06:52:40.898Z,9.30
2022-10-01T06:53:18.119Z,9.70
2022-10-01T06:53:52.297Z,9.60
2022-10-01T06:54:28.098Z,9.90
2022-10-01T06:55:02.570Z,11.20
2022-10-01T06:55:37.574Z,9.80
2022-10-01T06:56:10.878Z,9.30
2022-10-01T06:56:44.776Z,9.40
2022-10-01T06:57:18.172Z,11.80
2022-10-01T06:57:56.923Z,13.60
2022-10-01T06:58:30.532Z,12.10
2022-10-01T06:59:04.570Z,12.90
2022-10-01T06:59:37.993Z,11.90
2022-10-01T07:00:12.858Z,11.80
2022-10-01T07:00:47.923Z,11.70
2022-10-01T07:01:22.307Z,11.90
2022-10-01T07:01:56.346Z,11.30
2022-10-01T07:02:30.392Z,11.40
2022-10-01T07:03:11.398Z,11.90
2022-10-01T07:03:44.613Z,11.50
2022-10-01T07:04:17.857Z,11.40
2022-10-01T07:04:51.162Z,11.40
2022-10-01T07:05:25.724Z,12.10
2022-10-01T07:06:04.339Z,11.40
2022-10-01T07:06:37.944Z,11.40
2022-10-01T07:07:11.268Z,11.10
2022-10-01T07:07:48.793Z,11.10
2022-10-01T07:08:22.819Z,11.10
2022-10-01T07:08:56.837Z,10.50
2022-10-01T07:09:30.440Z,11.80
2022-10-01T07:10:06.715Z,10.60
2022-10-01T07:10:41.080Z,11.80
2022-10-01T07:11:14.209Z,12.00
2022-10-01T07:11:47.624Z,11.20
2022-10-01T07:12:20.857Z,11.60
2022-10-01T07:12:54.112Z,11.40
2022-10-01T07:13:27.237Z,11.00
2022-10-01T07:14:01.709Z,11.00
2022-10-01T07:14:34.979Z,11.00
2022-10-01T07:15:09.382Z,10.70
2022-10-01T07:15:43.094Z,10.90
2022-10-01T07:16:16.372Z,11.80
2022-10-01T07:16:49.577Z,13.20
2022-10-01T07:17:23.148Z,10.80
2022-10-01T07:17:56.455Z,10.60
2022-10-01T07:18:29.606Z,10.10
2022-10-01T07:19:03.002Z,10.10
2022-10-01T07:19:36.362Z,11.20
2022-10-01T07:20:09.951Z,10.40
2022-10-01T07:20:43.488Z,9.90
2022-10-01T07:21:16.797Z,11.30
2022-10-01T07:21:50.108Z,10.10
2022-10-01T07:22:24.569Z,10.50
2022-10-01T07:22:59.470Z,10.60
2022-10-01T07:23:32.667Z,9.80
2022-10-01T07:24:06.249Z,10.40
2022-10-01T07:24:39.856Z,9.70
2022-10-01T07:25:14.010Z,9.50
2022-10-01T07:25:47.426Z,9.60
2022-10-01T07:26:20.572Z,9.20
2022-10-01T07:26:56.146Z,9.20
2022-10-01T07:27:29.601Z,9.90
2022-10-01T07:28:05.099Z,10.60
2022-10-01T07:28:39.201Z,10.30
2022-10-01T07:29:12.341Z,10.50
2022-10-01T07:29:45.817Z,10.10
2022-10-01T07:30:19.106Z,11.30
2022-10-01T07:31:07.062Z,10.80
2022-10-01T07:31:40.357Z,10.70
2022-10-01T07:32:13.578Z,10.80
2022-10-01T07:32:46.880Z,10.80
2022-10-01T07:33:21.137Z,10.00
2022-10-01T07:33:58.150Z,10.00
2022-10-01T07:34:31.500Z,9.90
2022-10-01T07:35:06.195Z,10.00
2022-10-01T07:35:39.507Z,10.60
2022-10-01T07:36:13.791Z,10.70
2022-10-01T07:36:49.438Z,9.60
2022-10-01T07:37:23.314Z,9.30
2022-10-01T07:37:56.715Z,10.60
2022-10-01T07:38:30.598Z,11.50
2022-10-01T07:39:04.091Z,10.40
2022-10-01T07:39:37.619Z,10.10
2022-10-01T07:40:11.077Z,9.80
2022-10-01T07:40:44.303Z,10.10
2022-10-01T07:41:18.366Z,10.10
2022-10-01T07:41:52.170Z,9.50
2022-10-01T07:42:26.884Z,10.00
2022-10-01T07:43:00.094Z,10.40
2022-10-01T07:43:35.056Z,9.70
2022-10-01T07:44:08.360Z,9.50
2022-10-01T07:44:41.766Z,9.60
2022-10-01T07:45:15.152Z,8.90
2022-10-01T07:45:50.294Z,9.10
2022-10-01T07:46:23.915Z,9.20
2022-10-01T07:46:57.513Z,9.00
2022-10-01T07:47:30.979Z,8.60
2022-10-01T07:48:05.779Z,8.70
2022-10-01T07:48:39.210Z,8.40
2022-10-01T07:49:12.957Z,8.80
2022-10-01T07:49:46.338Z,8.00
2022-10-01T07:50:20.157Z,8.00
2022-10-01T07:50:57.749Z,7.90
2022-10-01T07:51:32.804Z,7.80
2022-10-01T07:52:12.398Z,7.10
2022-10-01T07:52:52.503Z,6.90
2022-10-01T07:53:27.793Z,7.40
2022-10-01T07:54:03.349Z,7.80
2022-10-01T07:54:37.578Z,7.00
2022-10-01T07:55:14.791Z,7.30
2022-10-01T07:55:48.638Z,7.60
2022-10-01T07:56:23.283Z,7.80
2022-10-01T07:56:57.807Z,7.90
2022-10-01T07:57:32.124Z,8.60
2022-10-01T07:58:06.885Z,10.10